Time;durP1;ratioP1;P1;durP2;ratioP2;P2;SDS_P1;SDS_P2;PMS_P1;PMS_P2;Temp;Humidity;BMP_temperature;BMP_pressure;BME280_temperature;BME280_humidity;BME280_pressure;Samples;Min_cycle;Max_cycle;Signal;HPM_P1;HPM_P2
2022/01/15 00:02:54;;;;;;;35.15;6.18;;;;;;;;;;8342649;28;20040;-65
2022/01/15 00:06:54;;;;;;;159.02;8.57;;;;;;;;;;8341921;28;20021;-65
2022/01/15 00:10:54;;;;;;;98.53;7.55;;;;;;;;;;8341635;28;20020;-65
2022/01/15 00:14:54;;;;;;;46.58;6.22;;;;;;;;;;8341738;28;20020;-65
2022/01/15 00:19:07;;;;;;;83.82;7.15;;;;;;;;;;8341729;28;20168;-65
2022/01/15 00:23:07;;;;;;;64.25;7.05;;;;;;;;;;8343293;28;20020;-65
2022/01/15 00:27:08;;;;;;;188.07;8.35;;;;;;;;;;8342057;28;20028;-65
2022/01/15 00:31:08;;;;;;;86.00;6.05;;;;;;;;;;8341653;28;20033;-65
2022/01/15 00:35:10;;;;;;;52.72;5.70;;;;;;;;;;8343976;28;20025;-65
2022/01/15 00:39:10;;;;;;;108.70;7.13;;;;;;;;;;8343455;28;20033;-65
2022/01/15 00:43:10;;;;;;;212.52;9.88;;;;;;;;;;8341206;28;20031;-65
2022/01/15 00:47:10;;;;;;;222.07;9.05;;;;;;;;;;8340883;28;20037;-65
2022/01/15 00:51:11;;;;;;;164.40;8.38;;;;;;;;;;8342727;28;20108;-65
2022/01/15 00:55:12;;;;;;;63.97;5.78;;;;;;;;;;8341261;28;20021;-65
2022/01/15 00:59:14;;;;;;;251.80;10.65;;;;;;;;;;8349424;28;20028;-65
2022/01/15 01:03:14;;;;;;;83.25;6.10;;;;;;;;;;8346875;28;20036;-65
2022/01/15 01:07:14;;;;;;;132.30;7.65;;;;;;;;;;8346854;28;20043;-65
2022/01/15 01:11:18;;;;;;;39.28;5.78;;;;;;;;;;8347164;28;20619;-65
2022/01/15 01:23:56;;;;;;;252.80;10.85;;;;;;;;;;8347200;28;20023;-65
2022/01/15 01:28:03;;;;;;;183.43;9.75;;;;;;;;;;8346646;28;20021;-65
2022/01/15 01:40:19;;;;;;;530.78;18.40;;;;;;;;;;8348110;28;20043;-65
2022/01/15 01:44:23;;;;;;;773.60;24.85;;;;;;;;;;8346572;28;20118;-65
2022/01/15 01:48:23;;;;;;;232.18;10.77;;;;;;;;;;8347200;28;20036;-65
2022/01/15 01:52:24;;;;;;;307.83;13.60;;;;;;;;;;8349793;28;20025;-65
2022/01/15 01:56:24;;;;;;;526.65;18.00;;;;;;;;;;8347153;28;20803;-65
2022/01/15 02:00:25;;;;;;;422.40;14.02;;;;;;;;;;8344506;28;20577;-65
2022/01/15 02:04:25;;;;;;;652.08;20.80;;;;;;;;;;8353824;28;20443;-65
2022/01/15 02:08:26;;;;;;;334.77;12.02;;;;;;;;;;8347169;28;20024;-66
2022/01/15 02:12:27;;;;;;;486.40;15.88;;;;;;;;;;8345229;28;20076;-65
2022/01/15 02:16:27;;;;;;;128.73;8.25;;;;;;;;;;8345470;28;20063;-65
2022/01/15 02:24:30;;;;;;;220.77;10.07;;;;;;;;;;8345499;28;20028;-65
2022/01/15 02:28:35;;;;;;;619.95;21.00;;;;;;;;;;8345038;28;20522;-65
2022/01/15 02:32:36;;;;;;;565.65;17.67;;;;;;;;;;8344421;28;20375;-65
2022/01/15 02:36:36;;;;;;;187.00;10.00;;;;;;;;;;8346201;28;20025;-65
2022/01/15 02:40:36;;;;;;;408.15;14.55;;;;;;;;;;8345639;28;20286;-65
2022/01/15 02:44:38;;;;;;;221.75;11.13;;;;;;;;;;8343973;28;20115;-65
2022/01/15 02:48:38;;;;;;;147.77;9.00;;;;;;;;;;8344262;28;20318;-65
2022/01/15 02:52:38;;;;;;;153.60;8.65;;;;;;;;;;8344407;28;20515;-65
2022/01/15 02:56:39;;;;;;;219.40;10.80;;;;;;;;;;8345119;28;20044;-65
2022/01/15 03:00:40;;;;;;;110.35;8.77;;;;;;;;;;8343350;28;20535;-65
2022/01/15 03:04:40;;;;;;;259.55;9.85;;;;;;;;;;8342233;28;20068;-65
2022/01/15 03:08:41;;;;;;;371.15;12.55;;;;;;;;;;8344882;28;20029;-65
2022/01/15 03:12:41;;;;;;;245.02;9.52;;;;;;;;;;8343338;28;20071;-65
2022/01/15 03:16:41;;;;;;;341.60;11.23;;;;;;;;;;8341753;28;20166;-65
2022/01/15 03:20:42;;;;;;;190.70;8.75;;;;;;;;;;8343926;28;20028;-65
2022/01/15 03:24:42;;;;;;;130.63;6.93;;;;;;;;;;8345153;28;20024;-65
2022/01/15 03:28:43;;;;;;;311.17;11.48;;;;;;;;;;8344288;28;20053;-65
2022/01/15 03:32:43;;;;;;;217.18;9.48;;;;;;;;;;8341057;28;20284;-65
2022/01/15 03:36:43;;;;;;;340.83;13.10;;;;;;;;;;8342511;28;20029;-65
2022/01/15 03:40:44;;;;;;;191.63;8.27;;;;;;;;;;8345700;28;20286;-65
2022/01/15 03:44:45;;;;;;;373.90;13.18;;;;;;;;;;8343046;28;20092;-65
2022/01/15 03:48:47;;;;;;;244.55;9.35;;;;;;;;;;8342022;28;20374;-65
2022/01/15 03:52:47;;;;;;;164.90;7.93;;;;;;;;;;8343291;28;20146;-65
2022/01/15 03:56:47;;;;;;;216.25;7.95;;;;;;;;;;8341728;28;20703;-65
2022/01/15 04:00:48;;;;;;;231.50;8.75;;;;;;;;;;8343191;28;20033;-65
2022/01/15 04:04:48;;;;;;;370.75;11.23;;;;;;;;;;8342357;28;20017;-65
2022/01/15 04:08:48;;;;;;;326.87;9.23;;;;;;;;;;8340182;28;20031;-65
2022/01/15 04:12:48;;;;;;;400.77;11.13;;;;;;;;;;8342108;28;20347;-65
2022/01/15 04:16:48;;;;;;;233.95;8.38;;;;;;;;;;8341418;28;20048;-65
2022/01/15 04:20:50;;;;;;;180.07;6.35;;;;;;;;;;8340901;28;20662;-65
2022/01/15 04:24:51;;;;;;;330.15;9.10;;;;;;;;;;8342891;28;20251;-66
2022/01/15 04:28:52;;;;;;;411.38;13.43;;;;;;;;;;8341671;28;20031;-66
2022/01/15 04:32:52;;;;;;;160.25;5.95;;;;;;;;;;8342591;28;20153;-66
2022/01/15 04:37:01;;;;;;;55.72;5.10;;;;;;;;;;8343718;28;20028;-66
2022/01/15 04:41:01;;;;;;;154.13;6.10;;;;;;;;;;8341929;28;20024;-66
2022/01/15 04:45:03;;;;;;;131.80;6.50;;;;;;;;;;8340424;28;20040;-67
2022/01/15 04:49:04;;;;;;;351.88;10.68;;;;;;;;;;8337945;28;20028;-66
2022/01/15 04:53:05;;;;;;;407.85;12.52;;;;;;;;;;8342552;28;20023;-66
2022/01/15 04:57:05;;;;;;;301.55;9.13;;;;;;;;;;8342470;28;20665;-66
2022/01/15 05:01:05;;;;;;;303.02;9.43;;;;;;;;;;8339808;28;20264;-66
2022/01/15 05:05:06;;;;;;;421.55;12.35;;;;;;;;;;8341636;28;20029;-66
2022/01/15 05:09:06;;;;;;;212.52;8.10;;;;;;;;;;8342265;28;20025;-66
2022/01/15 05:13:07;;;;;;;379.13;11.60;;;;;;;;;;8340289;28;20028;-65
2022/01/15 05:17:07;;;;;;;249.45;8.70;;;;;;;;;;8341433;28;20504;-66
2022/01/15 05:21:07;;;;;;;199.82;7.55;;;;;;;;;;8342065;28;20021;-66
2022/01/15 05:25:08;;;;;;;250.38;8.35;;;;;;;;;;8341410;28;20013;-66
2022/01/15 05:29:08;;;;;;;149.02;7.70;;;;;;;;;;8343220;28;20103;-66
2022/01/15 05:33:08;;;;;;;307.63;9.60;;;;;;;;;;8339602;28;20289;-66
2022/01/15 05:37:08;;;;;;;374.70;12.25;;;;;;;;;;8341812;28;20107;-66
2022/01/15 05:41:08;;;;;;;227.20;7.97;;;;;;;;;;8342009;28;20352;-65
2022/01/15 05:45:09;;;;;;;408.45;11.50;;;;;;;;;;8342464;28;21293;-66
2022/01/15 05:49:09;;;;;;;316.95;9.85;;;;;;;;;;8348753;28;20119;-65
2022/01/15 05:53:10;;;;;;;294.70;8.55;;;;;;;;;;8347230;28;20025;-66
2022/01/15 05:57:10;;;;;;;255.95;8.07;;;;;;;;;;8347459;28;20029;-66
2022/01/15 06:01:10;;;;;;;383.23;11.63;;;;;;;;;;8347358;28;20045;-66
2022/01/15 06:05:11;;;;;;;288.75;9.82;;;;;;;;;;8345543;28;20052;-66
2022/01/15 06:09:11;;;;;;;296.30;9.63;;;;;;;;;;8347416;28;20042;-65
2022/01/15 06:13:11;;;;;;;209.57;7.68;;;;;;;;;;8345631;28;20037;-65
2022/01/15 06:17:11;;;;;;;160.65;6.70;;;;;;;;;;8346011;28;20074;-65
2022/01/15 06:21:11;;;;;;;304.55;9.75;;;;;;;;;;8345917;28;20025;-65
2022/01/15 06:25:12;;;;;;;302.58;9.40;;;;;;;;;;8345013;28;20701;-65
2022/01/15 06:29:12;;;;;;;103.13;6.20;;;;;;;;;;8345738;28;20582;-65
2022/01/15 06:33:13;;;;;;;305.40;9.60;;;;;;;;;;8343738;28;20057;-66
2022/01/15 06:37:13;;;;;;;138.15;6.53;;;;;;;;;;8346026;28;20784;-66
2022/01/15 06:41:13;;;;;;;142.65;6.85;;;;;;;;;;8344568;28;20101;-66
2022/01/15 06:45:13;;;;;;;308.15;9.40;;;;;;;;;;8343819;28;20135;-66
2022/01/15 06:49:13;;;;;;;87.65;5.80;;;;;;;;;;8344713;28;20043;-65
2022/01/15 06:53:14;;;;;;;68.13;5.57;;;;;;;;;;8346287;28;20017;-65
2022/01/15 06:57:14;;;;;;;197.48;7.28;;;;;;;;;;8345307;28;20059;-66
2022/01/15 07:01:14;;;;;;;109.68;5.40;;;;;;;;;;8343817;28;20033;-65
2022/01/15 07:05:14;;;;;;;246.93;7.90;;;;;;;;;;8342102;28;20028;-65
2022/01/15 07:09:14;;;;;;;378.67;10.75;;;;;;;;;;8345237;28;20029;-65
2022/01/15 07:13:14;;;;;;;140.20;6.07;;;;;;;;;;8342842;28;20033;-65
2022/01/15 07:17:15;;;;;;;350.95;9.73;;;;;;;;;;8342499;28;20517;-66
2022/01/15 07:21:15;;;;;;;508.42;15.52;;;;;;;;;;8343078;28;20021;-65
2022/01/15 07:25:16;;;;;;;296.30;8.98;;;;;;;;;;8342099;28;20017;-66
2022/01/15 07:29:17;;;;;;;458.27;12.18;;;;;;;;;;8337183;28;20020;-65
2022/01/15 07:33:17;;;;;;;181.82;6.53;;;;;;;;;;8338483;28;20045;-65
2022/01/15 07:37:18;;;;;;;385.00;9.95;;;;;;;;;;8340489;28;20033;-66
2022/01/15 07:41:18;;;;;;;413.08;10.60;;;;;;;;;;8340996;28;20017;-66
2022/01/15 07:45:18;;;;;;;446.83;11.23;;;;;;;;;;8339504;28;20020;-66
2022/01/15 07:49:18;;;;;;;284.98;8.32;;;;;;;;;;8340366;28;20017;-66
2022/01/15 07:53:18;;;;;;;453.13;11.27;;;;;;;;;;8339222;28;20032;-66
2022/01/15 07:57:19;;;;;;;236.55;7.72;;;;;;;;;;8339211;28;20294;-66
2022/01/15 08:01:19;;;;;;;451.60;11.13;;;;;;;;;;8339112;28;20131;-66
2022/01/15 08:05:19;;;;;;;562.22;13.80;;;;;;;;;;8339285;28;20032;-65
2022/01/15 08:09:19;;;;;;;398.00;10.15;;;;;;;;;;8339427;28;20390;-66
2022/01/15 08:13:20;;;;;;;498.33;16.13;;;;;;;;;;8338582;28;20036;-66
2022/01/15 08:17:20;;;;;;;402.77;10.00;;;;;;;;;;8339034;28;20135;-66
2022/01/15 08:21:20;;;;;;;240.00;6.77;;;;;;;;;;8338672;28;20520;-66
2022/01/15 08:25:22;;;;;;;506.88;14.43;;;;;;;;;;8338754;28;21047;-66
2022/01/15 08:29:23;;;;;;;392.27;9.48;;;;;;;;;;8337594;28;20055;-66
2022/01/15 08:33:23;;;;;;;606.60;14.07;;;;;;;;;;8337249;28;20044;-66
2022/01/15 08:37:23;;;;;;;335.40;9.13;;;;;;;;;;8339888;28;20041;-66
2022/01/15 08:41:24;;;;;;;653.88;15.30;;;;;;;;;;8338846;28;20136;-66
2022/01/15 08:45:24;;;;;;;190.90;6.03;;;;;;;;;;8337697;28;21056;-66
2022/01/15 08:49:25;;;;;;;206.18;6.60;;;;;;;;;;8338579;28;20378;-67
2022/01/15 08:53:25;;;;;;;453.58;10.65;;;;;;;;;;8338041;28;20692;-66
2022/01/15 08:57:25;;;;;;;387.23;9.75;;;;;;;;;;8338121;28;20028;-66
2022/01/15 09:01:26;;;;;;;259.38;7.88;;;;;;;;;;8334428;28;20041;-66
2022/01/15 09:05:26;;;;;;;449.17;10.63;;;;;;;;;;8337189;28;20287;-66
2022/01/15 09:09:26;;;;;;;429.52;10.20;;;;;;;;;;8333671;28;20377;-66
2022/01/15 09:13:27;;;;;;;328.02;8.52;;;;;;;;;;8336838;28;20521;-66
2022/01/15 09:17:27;;;;;;;291.15;7.95;;;;;;;;;;8337991;28;20283;-66
2022/01/15 09:21:28;;;;;;;531.67;12.88;;;;;;;;;;8344115;28;20025;-65
2022/01/15 09:25:28;;;;;;;581.13;13.40;;;;;;;;;;8342594;28;20136;-66
2022/01/15 09:33:47;;;;;;;550.97;13.27;;;;;;;;;;8343520;28;20043;-66
2022/01/15 09:37:49;;;;;;;705.23;17.17;;;;;;;;;;8343208;28;20021;-65
2022/01/15 09:41:53;;;;;;;643.95;15.18;;;;;;;;;;8344753;28;20317;-66
2022/01/15 09:45:54;;;;;;;;;;;;;;;;;;8342580;28;20041;-66
2022/01/15 09:49:54;;;;;;;588.47;14.75;;;;;;;;;;8343442;28;21008;-65
2022/01/15 09:53:54;;;;;;;492.75;11.60;;;;;;;;;;8345037;28;20112;-66
2022/01/15 09:57:55;;;;;;;499.73;12.15;;;;;;;;;;8343224;28;20028;-66
2022/01/15 10:01:57;;;;;;;481.48;12.30;;;;;;;;;;8342928;28;20036;-66
2022/01/15 10:06:02;;;;;;;359.98;10.30;;;;;;;;;;8342836;28;20105;-66
2022/01/15 10:10:16;;;;;;;588.97;15.82;;;;;;;;;;8342308;28;20020;-66
2022/01/15 10:14:43;;;;;;;334.17;9.18;;;;;;;;;;8342870;28;20033;-66
2022/01/15 10:18:45;;;;;;;666.42;17.80;;;;;;;;;;8339214;28;20270;-66
2022/01/15 10:22:46;;;;;;;373.88;9.68;;;;;;;;;;8341985;28;20092;-65
2022/01/15 10:26:46;;;;;;;588.03;14.45;;;;;;;;;;8341279;28;20038;-66
2022/01/15 10:30:47;;;;;;;555.50;14.40;;;;;;;;;;8336096;28;20136;-66
2022/01/15 10:34:47;;;;;;;426.80;10.73;;;;;;;;;;8342938;28;20156;-66
2022/01/15 10:38:48;;;;;;;285.52;9.07;;;;;;;;;;8340667;28;20139;-66
2022/01/15 10:42:54;;;;;;;571.85;13.82;;;;;;;;;;8339186;28;20016;-66
2022/01/15 10:47:04;;;;;;;612.47;15.05;;;;;;;;;;8340300;28;20060;-66
2022/01/15 10:51:05;;;;;;;615.85;14.85;;;;;;;;;;8340455;28;20530;-67
2022/01/15 10:55:06;;;;;;;829.80;20.73;;;;;;;;;;8341993;28;20024;-66
2022/01/15 10:59:07;;;;;;;678.25;16.30;;;;;;;;;;8339855;28;20060;-66
2022/01/15 11:03:08;;;;;;;672.35;15.73;;;;;;;;;;8339722;28;20877;-66
2022/01/15 11:07:12;;;;;;;528.40;14.35;;;;;;;;;;8341082;28;20025;-66
2022/01/15 11:11:14;;;;;;;432.40;11.80;;;;;;;;;;8342073;28;20016;-66
2022/01/15 11:15:14;;;;;;;503.83;13.65;;;;;;;;;;8340121;28;20033;-66
2022/01/15 11:19:14;;;;;;;536.80;13.23;;;;;;;;;;8341185;28;20091;-66
2022/01/15 11:23:16;;;;;;;518.70;12.65;;;;;;;;;;8338620;28;20033;-66
2022/01/15 11:27:16;;;;;;;621.90;15.23;;;;;;;;;;8338904;28;20933;-66
2022/01/15 11:31:21;;;;;;;647.90;15.23;;;;;;;;;;8339834;28;20703;-66
2022/01/15 11:35:35;;;;;;;614.97;14.85;;;;;;;;;;8339085;28;20043;-66
2022/01/15 11:39:35;;;;;;;610.00;14.63;;;;;;;;;;8341614;28;20737;-67
2022/01/15 11:43:35;;;;;;;543.28;13.05;;;;;;;;;;8339514;28;20377;-66
2022/01/15 11:47:35;;;;;;;565.53;14.18;;;;;;;;;;8341495;28;20509;-66
2022/01/15 11:51:35;;;;;;;482.50;12.63;;;;;;;;;;8340100;28;20033;-67
2022/01/15 11:55:39;;;;;;;293.35;9.80;;;;;;;;;;8340886;28;20036;-67
2022/01/15 11:59:49;;;;;;;755.78;18.27;;;;;;;;;;8341448;28;20151;-67
2022/01/15 12:03:50;;;;;;;808.92;19.92;;;;;;;;;;8337426;28;20545;-66
2022/01/15 12:07:59;;;;;;;387.30;11.63;;;;;;;;;;8339848;28;20453;-66
2022/01/15 12:12:00;;;;;;;522.45;13.80;;;;;;;;;;8338450;28;20867;-66
2022/01/15 12:16:26;;;;;;;746.10;19.45;;;;;;;;;;8340090;28;20045;-66
2022/01/15 12:20:26;;;;;;;499.70;12.80;;;;;;;;;;8339610;28;20024;-66
2022/01/15 12:24:33;;;;;;;700.17;16.95;;;;;;;;;;8349509;28;20035;-66
2022/01/15 12:28:34;;;;;;;362.92;11.52;;;;;;;;;;8339970;28;20033;-66
2022/01/15 12:32:38;;;;;;;524.72;13.02;;;;;;;;;;8339325;28;20804;-66
2022/01/15 12:36:47;;;;;;;290.65;9.23;;;;;;;;;;8336980;28;20029;-66
2022/01/15 12:40:52;;;;;;;636.10;15.60;;;;;;;;;;8340108;28;21554;-66
2022/01/15 12:44:53;;;;;;;;;;;;;;;;;;8338404;28;20013;-66
2022/01/15 12:48:53;;;;;;;539.83;13.20;;;;;;;;;;8336570;28;20049;-66
2022/01/15 12:53:00;;;;;;;453.35;12.00;;;;;;;;;;8342049;28;20028;-66
2022/01/15 12:57:00;;;;;;;354.60;10.25;;;;;;;;;;8344963;28;20025;-66
2022/01/15 13:01:02;;;;;;;539.10;13.05;;;;;;;;;;8344289;28;20037;-66
2022/01/15 13:05:03;;;;;;;262.92;8.23;;;;;;;;;;8344625;28;20024;-66
2022/01/15 13:09:04;;;;;;;543.60;13.63;;;;;;;;;;8345854;28;20053;-66
2022/01/15 13:13:04;;;;;;;565.67;14.27;;;;;;;;;;8345982;28;20024;-66
2022/01/15 13:17:04;;;;;;;530.10;14.18;;;;;;;;;;8343838;28;20060;-66
2022/01/15 13:21:06;;;;;;;717.25;16.52;;;;;;;;;;8344868;28;21140;-69
2022/01/15 13:25:08;;;;;;;641.83;15.57;;;;;;;;;;8345410;28;20115;-67
2022/01/15 13:29:11;;;;;;;564.35;13.23;;;;;;;;;;8344055;28;20025;-66
2022/01/15 13:33:11;;;;;;;495.58;13.10;;;;;;;;;;8343330;28;20053;-66
2022/01/15 13:37:13;;;;;;;710.78;16.48;;;;;;;;;;8345991;28;20037;-66
2022/01/15 13:41:15;;;;;;;751.92;17.45;;;;;;;;;;8344394;28;20036;-66
2022/01/15 13:45:15;;;;;;;490.55;13.00;;;;;;;;;;8341967;28;20035;-66
2022/01/15 13:49:20;;;;;;;367.52;10.10;;;;;;;;;;8343773;28;20028;-66
2022/01/15 13:53:31;;;;;;;444.25;11.68;;;;;;;;;;8345457;28;20086;-66
2022/01/15 13:57:32;;;;;;;670.00;16.25;;;;;;;;;;8343636;28;20090;-66
2022/01/15 14:01:34;;;;;;;859.53;20.52;;;;;;;;;;8344445;28;20079;-66
2022/01/15 14:05:35;;;;;;;610.40;15.63;;;;;;;;;;8342312;28;20619;-65
2022/01/15 14:09:35;;;;;;;502.58;12.80;;;;;;;;;;8342936;28;20029;-66
2022/01/15 14:13:36;;;;;;;594.38;14.68;;;;;;;;;;8341503;28;20079;-66
2022/01/15 14:17:41;;;;;;;496.15;13.52;;;;;;;;;;8341767;28;20037;-66
2022/01/15 14:21:42;;;;;;;443.80;12.32;;;;;;;;;;8343470;28;20283;-66
2022/01/15 14:25:44;;;;;;;492.60;12.48;;;;;;;;;;8341596;28;20019;-66
2022/01/15 14:29:44;;;;;;;602.22;14.40;;;;;;;;;;8341830;28;20043;-66
2022/01/15 14:33:45;;;;;;;606.45;14.15;;;;;;;;;;8339860;28;20069;-66
2022/01/15 14:37:46;;;;;;;500.45;12.55;;;;;;;;;;8340306;28;20028;-66
2022/01/15 14:41:46;;;;;;;536.45;13.30;;;;;;;;;;8340561;28;20019;-66
2022/01/15 14:45:47;;;;;;;353.08;10.00;;;;;;;;;;8339840;28;20974;-67
2022/01/15 14:49:47;;;;;;;451.27;11.38;;;;;;;;;;8341897;28;20031;-66
2022/01/15 14:53:48;;;;;;;674.70;16.95;;;;;;;;;;8342599;28;20107;-66
2022/01/15 14:57:48;;;;;;;325.85;9.18;;;;;;;;;;8342817;28;20033;-66
2022/01/15 15:01:48;;;;;;;521.60;13.18;;;;;;;;;;8340656;28;20029;-66
2022/01/15 15:05:49;;;;;;;467.30;12.88;;;;;;;;;;8337921;28;20059;-66
2022/01/15 15:09:49;;;;;;;464.85;12.82;;;;;;;;;;8342753;28;20029;-66
2022/01/15 15:13:49;;;;;;;476.23;12.20;;;;;;;;;;8341679;28;20919;-66
2022/01/15 15:17:49;;;;;;;348.55;10.70;;;;;;;;;;8340277;28;20742;-66
2022/01/15 15:21:50;;;;;;;466.17;12.83;;;;;;;;;;8342304;28;20017;-66
2022/01/15 15:25:50;;;;;;;723.90;17.65;;;;;;;;;;8340903;28;20252;-66
2022/01/15 15:29:50;;;;;;;427.13;11.90;;;;;;;;;;8341944;28;20665;-66
2022/01/15 15:33:50;;;;;;;646.58;17.65;;;;;;;;;;8339409;28;20028;-66
2022/01/15 15:37:53;;;;;;;433.77;12.05;;;;;;;;;;8340897;28;20029;-66
2022/01/15 15:41:54;;;;;;;338.10;11.32;;;;;;;;;;8339125;28;20243;-66
2022/01/15 15:45:54;;;;;;;192.55;8.43;;;;;;;;;;8339698;28;20041;-66
2022/01/15 15:49:56;;;;;;;199.18;8.45;;;;;;;;;;8339796;28;20163;-66
2022/01/15 15:53:56;;;;;;;417.85;11.38;;;;;;;;;;8340188;28;20119;-66
2022/01/15 15:57:56;;;;;;;249.43;8.95;;;;;;;;;;8339695;28;20080;-66
2022/01/15 16:01:56;;;;;;;532.72;14.30;;;;;;;;;;8336468;28;20033;-66
2022/01/15 16:05:56;;;;;;;471.23;12.32;;;;;;;;;;8340059;28;20883;-66
2022/01/15 16:09:58;;;;;;;246.30;8.80;;;;;;;;;;8339372;28;20621;-66
2022/01/15 16:13:59;;;;;;;388.13;11.35;;;;;;;;;;8337977;28;20461;-66
2022/01/15 16:17:59;;;;;;;306.08;9.48;;;;;;;;;;8339873;28;20212;-66
2022/01/15 16:21:59;;;;;;;524.22;14.45;;;;;;;;;;8338221;28;20102;-66
2022/01/15 16:26:00;;;;;;;629.70;17.27;;;;;;;;;;8340334;28;20017;-66
2022/01/15 16:30:00;;;;;;;328.02;10.88;;;;;;;;;;8340138;28;20029;-66
2022/01/15 16:34:00;;;;;;;206.55;9.65;;;;;;;;;;8337136;28;20044;-66
2022/01/15 16:38:00;;;;;;;119.88;7.32;;;;;;;;;;8339364;28;20073;-66
2022/01/15 16:42:02;;;;;;;123.45;7.60;;;;;;;;;;8335647;28;20584;-66
2022/01/15 16:46:02;;;;;;;108.82;7.55;;;;;;;;;;8338176;28;20106;-66
2022/01/15 16:50:08;;;;;;;161.27;8.85;;;;;;;;;;8339487;28;20175;-66
2022/01/15 16:54:10;;;;;;;104.70;7.60;;;;;;;;;;8339951;28;20020;-66
2022/01/15 16:58:10;;;;;;;279.95;9.70;;;;;;;;;;8341662;28;20221;-67
2022/01/15 17:02:10;;;;;;;233.85;9.45;;;;;;;;;;8339616;28;20120;-66
2022/01/15 17:06:10;;;;;;;308.90;11.43;;;;;;;;;;8337563;28;20107;-66
2022/01/15 17:10:11;;;;;;;281.65;12.07;;;;;;;;;;8338478;28;20064;-66
2022/01/15 17:14:11;;;;;;;419.95;14.23;;;;;;;;;;8338665;28;20071;-66
2022/01/15 17:18:11;;;;;;;519.40;15.88;;;;;;;;;;8337948;28;20488;-66
2022/01/15 17:22:11;;;;;;;509.50;17.67;;;;;;;;;;8338312;28;20763;-66
2022/01/15 17:26:12;;;;;;;161.07;9.68;;;;;;;;;;8340932;28;20921;-66
2022/01/15 17:30:12;;;;;;;202.02;10.23;;;;;;;;;;8336321;28;20036;-66
2022/01/15 17:34:13;;;;;;;106.40;8.55;;;;;;;;;;8337654;28;20266;-66
2022/01/15 17:38:13;;;;;;;226.93;11.07;;;;;;;;;;8338613;28;20036;-66
2022/01/15 17:42:13;;;;;;;151.33;9.20;;;;;;;;;;8344423;28;20040;-66
2022/01/15 17:46:13;;;;;;;152.80;8.73;;;;;;;;;;8343708;28;20271;-66
2022/01/15 17:50:14;;;;;;;154.90;9.52;;;;;;;;;;8343361;28;20055;-66
2022/01/15 17:54:14;;;;;;;343.48;12.45;;;;;;;;;;8344103;28;20501;-66
2022/01/15 17:58:14;;;;;;;226.55;10.60;;;;;;;;;;8344036;28;20712;-70
2022/01/15 18:02:15;;;;;;;276.60;11.55;;;;;;;;;;8343681;28;20042;-66
2022/01/15 18:06:16;;;;;;;174.10;10.35;;;;;;;;;;8342504;28;20085;-66
2022/01/15 18:10:21;;;;;;;44.67;7.45;;;;;;;;;;8340810;28;20307;-66
2022/01/15 18:14:22;;;;;;;58.88;8.15;;;;;;;;;;8341873;28;20021;-66
2022/01/15 18:18:22;;;;;;;163.27;9.88;;;;;;;;;;8341374;28;20036;-66
2022/01/15 18:22:22;;;;;;;248.70;11.37;;;;;;;;;;8342956;28;20025;-66
2022/01/15 18:26:22;;;;;;;65.13;8.50;;;;;;;;;;8341764;28;20351;-66
2022/01/15 18:30:22;;;;;;;351.95;12.38;;;;;;;;;;8342625;28;20098;-65
2022/01/15 18:34:23;;;;;;;391.05;12.80;;;;;;;;;;8339554;28;20029;-65
2022/01/15 18:38:23;;;;;;;340.52;12.38;;;;;;;;;;8341846;28;20470;-65
2022/01/15 18:42:23;;;;;;;110.32;8.05;;;;;;;;;;8340987;28;20056;-66
2022/01/15 18:46:25;;;;;;;235.90;10.80;;;;;;;;;;8340955;28;20037;-66
2022/01/15 18:50:26;;;;;;;72.90;7.72;;;;;;;;;;8341255;28;20696;-66
2022/01/15 18:54:27;;;;;;;444.83;15.48;;;;;;;;;;8342064;28;20063;-66
2022/01/15 18:58:28;;;;;;;47.15;7.20;;;;;;;;;;8340299;28;20118;-66
2022/01/15 19:02:28;;;;;;;393.25;15.05;;;;;;;;;;8340813;28;20417;-65
2022/01/15 19:06:28;;;;;;;521.17;17.17;;;;;;;;;;8341364;28;20123;-65
2022/01/15 19:10:29;;;;;;;178.98;9.82;;;;;;;;;;8342654;28;20032;-65
2022/01/15 19:14:32;;;;;;;710.85;23.00;;;;;;;;;;8340607;28;20033;-65
2022/01/15 19:18:32;;;;;;;125.43;9.40;;;;;;;;;;8339684;28;20037;-65
2022/01/15 19:22:33;;;;;;;159.98;10.70;;;;;;;;;;8342666;28;20033;-65
2022/01/15 19:26:33;;;;;;;352.70;13.85;;;;;;;;;;8339682;28;20025;-66
2022/01/15 19:30:38;;;;;;;649.85;21.33;;;;;;;;;;8340992;28;20068;-66
2022/01/15 19:34:38;;;;;;;465.38;16.80;;;;;;;;;;8340682;28;20021;-66
2022/01/15 19:38:40;;;;;;;484.08;18.48;;;;;;;;;;8339714;28;20020;-65
2022/01/15 19:42:40;;;;;;;276.63;15.30;;;;;;;;;;8340727;28;20083;-66
2022/01/15 19:46:42;;;;;;;782.55;24.73;;;;;;;;;;8338562;28;20372;-66
2022/01/15 19:50:43;;;;;;;874.10;30.10;;;;;;;;;;8338559;28;20842;-65
2022/01/15 19:54:43;;;;;;;732.22;29.02;;;;;;;;;;8340903;28;20025;-66
2022/01/15 19:58:44;;;;;;;701.28;25.27;;;;;;;;;;8340191;28;20634;-66
2022/01/15 20:02:44;;;;;;;234.90;13.85;;;;;;;;;;8336752;28;20071;-65
2022/01/15 20:06:45;;;;;;;411.00;18.05;;;;;;;;;;8338111;28;20036;-65
2022/01/15 20:10:45;;;;;;;822.22;29.17;;;;;;;;;;8340980;28;20013;-65
2022/01/15 20:14:45;;;;;;;328.70;23.03;;;;;;;;;;8334968;28;20115;-65
2022/01/15 20:18:45;;;;;;;1030.32;32.85;;;;;;;;;;8336844;28;20296;-65
2022/01/15 20:22:46;;;;;;;362.23;17.35;;;;;;;;;;8337993;28;20024;-65
2022/01/15 20:26:46;;;;;;;780.65;27.40;;;;;;;;;;8338250;28;21073;-66
2022/01/15 20:30:47;;;;;;;834.30;29.33;;;;;;;;;;8338561;28;20036;-65
2022/01/15 20:34:47;;;;;;;1034.07;33.17;;;;;;;;;;8337293;28;20098;-65
2022/01/15 20:38:48;;;;;;;1145.80;36.08;;;;;;;;;;8338018;28;20083;-65
2022/01/15 20:42:48;;;;;;;755.33;27.98;;;;;;;;;;8340406;28;20024;-65
2022/01/15 20:46:48;;;;;;;787.72;27.38;;;;;;;;;;8336880;28;20025;-66
2022/01/15 20:50:48;;;;;;;630.47;23.00;;;;;;;;;;8340421;28;20029;-66
2022/01/15 20:54:49;;;;;;;556.90;29.50;;;;;;;;;;8337679;28;20045;-66
2022/01/15 20:58:49;;;;;;;264.83;23.45;;;;;;;;;;8338373;28;20033;-66
2022/01/15 21:02:49;;;;;;;626.80;26.45;;;;;;;;;;8336826;28;20781;-65
2022/01/15 21:06:50;;;;;;;426.60;22.42;;;;;;;;;;8339292;28;20267;-66
2022/01/15 21:10:50;;;;;;;205.35;16.10;;;;;;;;;;8336525;28;20024;-66
2022/01/15 21:14:50;;;;;;;171.87;26.23;;;;;;;;;;8341629;28;20066;-65
2022/01/15 21:18:51;;;;;;;656.25;33.38;;;;;;;;;;8342317;28;20406;-66
2022/01/15 21:22:55;;;;;;;176.23;16.92;;;;;;;;;;8342095;28;20013;-65
2022/01/15 21:26:55;;;;;;;262.25;16.77;;;;;;;;;;8343353;28;20802;-65
2022/01/15 21:30:55;;;;;;;210.00;16.48;;;;;;;;;;8341401;28;20110;-65
2022/01/15 21:34:56;;;;;;;251.32;17.77;;;;;;;;;;8345303;28;20604;-65
2022/01/15 21:38:56;;;;;;;448.90;19.33;;;;;;;;;;8347537;28;20025;-65
2022/01/15 21:42:58;;;;;;;358.92;21.17;;;;;;;;;;8347473;28;20024;-66
2022/01/15 21:46:59;;;;;;;206.30;18.48;;;;;;;;;;8346322;28;20427;-66
2022/01/15 21:50:59;;;;;;;239.63;18.63;;;;;;;;;;8344959;28;20072;-65
2022/01/15 21:55:00;;;;;;;229.50;16.95;;;;;;;;;;8344642;28;20848;-65
2022/01/15 21:59:02;;;;;;;219.13;15.88;;;;;;;;;;8346629;28;20017;-66
2022/01/15 22:03:03;;;;;;;245.38;16.83;;;;;;;;;;8345352;28;20713;-65
2022/01/15 22:07:05;;;;;;;314.27;17.73;;;;;;;;;;8341360;28;20810;-65
2022/01/15 22:11:05;;;;;;;150.70;15.10;;;;;;;;;;8346051;28;20109;-65
2022/01/15 22:15:05;;;;;;;246.52;18.20;;;;;;;;;;8343248;28;20060;-65
2022/01/15 22:19:06;;;;;;;148.25;14.68;;;;;;;;;;8344654;28;20374;-65
2022/01/15 22:23:06;;;;;;;128.93;13.88;;;;;;;;;;8344822;28;20023;-65
2022/01/15 22:27:09;;;;;;;168.57;15.55;;;;;;;;;;8343259;28;20177;-65
2022/01/15 22:31:09;;;;;;;84.93;14.27;;;;;;;;;;8343756;28;20029;-65
2022/01/15 22:35:09;;;;;;;223.02;14.70;;;;;;;;;;8345903;28;20028;-65
2022/01/15 22:39:09;;;;;;;37.15;10.20;;;;;;;;;;8346650;28;20104;-65
2022/01/15 22:43:10;;;;;;;214.52;15.02;;;;;;;;;;8342863;28;20255;-65
2022/01/15 22:47:10;;;;;;;70.57;20.77;;;;;;;;;;8342985;28;20028;-65
2022/01/15 22:51:10;;;;;;;110.88;17.27;;;;;;;;;;8342081;28;20279;-65
2022/01/15 22:55:11;;;;;;;203.70;14.05;;;;;;;;;;8342538;28;20147;-66
2022/01/15 22:59:11;;;;;;;279.60;16.23;;;;;;;;;;8344891;28;20033;-65
2022/01/15 23:03:12;;;;;;;208.52;14.25;;;;;;;;;;8342666;28;20073;-65
2022/01/15 23:07:12;;;;;;;318.85;16.08;;;;;;;;;;8342822;28;20031;-65
2022/01/15 23:11:18;;;;;;;189.20;13.48;;;;;;;;;;8346998;28;20116;-65
2022/01/15 23:19:31;;;;;;;68.78;11.88;;;;;;;;;;8344044;28;20095;-65
2022/01/15 23:23:31;;;;;;;142.88;12.18;;;;;;;;;;8344767;28;20029;-65
2022/01/15 23:27:32;;;;;;;141.07;13.55;;;;;;;;;;8343769;28;20025;-66
2022/01/15 23:31:32;;;;;;;98.75;13.60;;;;;;;;;;8343747;28;20502;-65
2022/01/15 23:35:32;;;;;;;79.88;12.73;;;;;;;;;;8342507;28;20036;-65
2022/01/15 23:39:33;;;;;;;135.95;15.68;;;;;;;;;;8343386;28;20028;-65
2022/01/15 23:43:35;;;;;;;182.75;14.18;;;;;;;;;;8344933;28;20123;-66